sensor_id;sensor_type;location;lat;lon;timestamp;pressure;altitude;pressure_sealevel;temperature
80962;BMP280;70424;55.154;14.722;2023-10-31T00:00:17;99791.56;;;10.30
80962;BMP280;70424;55.154;14.722;2023-10-31T00:02:43;99789.03;;;10.34
80962;BMP280;70424;55.154;14.722;2023-10-31T00:05:08;99776.97;;;10.39
80962;BMP280;70424;55.154;14.722;2023-10-31T00:07:33;99764.88;;;10.42
80962;BMP280;70424;55.154;14.722;2023-10-31T00:09:59;99769.72;;;10.43
80962;BMP280;70424;55.154;14.722;2023-10-31T00:12:25;99766.38;;;10.45
80962;BMP280;70424;55.154;14.722;2023-10-31T00:14:51;99771.22;;;10.46
80962;BMP280;70424;55.154;14.722;2023-10-31T00:17:16;99759.69;;;10.48
80962;BMP280;70424;55.154;14.722;2023-10-31T00:19:41;99757.16;;;10.52
80962;BMP280;70424;55.154;14.722;2023-10-31T00:22:07;99745.63;;;10.54
80962;BMP280;70424;55.154;14.722;2023-10-31T00:24:32;99744.50;;;10.59
80962;BMP280;70424;55.154;14.722;2023-10-31T00:26:58;99749.38;;;10.60
80962;BMP280;70424;55.154;14.722;2023-10-31T00:29:24;99737.63;;;10.58
80962;BMP280;70424;55.154;14.722;2023-10-31T00:31:49;99742.69;;;10.63
80962;BMP280;70424;55.154;14.722;2023-10-31T00:34:14;99727.63;;;10.62
80962;BMP280;70424;55.154;14.722;2023-10-31T00:36:40;99733.25;;;10.66
80962;BMP280;70424;55.154;14.722;2023-10-31T00:39:05;99730.66;;;10.68
80962;BMP280;70424;55.154;14.722;2023-10-31T00:41:31;99723.16;;;10.69
80962;BMP280;70424;55.154;14.722;2023-10-31T00:43:56;99716.25;;;10.68
80962;BMP280;70424;55.154;14.722;2023-10-31T00:46:21;99720.50;;;10.71
80962;BMP280;70424;55.154;14.722;2023-10-31T00:48:47;99708.88;;;10.70
80962;BMP280;70424;55.154;14.722;2023-10-31T00:51:13;99708.88;;;10.70
80962;BMP280;70424;55.154;14.722;2023-10-31T00:53:38;99710.97;;;10.72
80962;BMP280;70424;55.154;14.722;2023-10-31T00:56:04;99713.81;;;10.74
80962;BMP280;70424;55.154;14.722;2023-10-31T00:58:29;99699.56;;;10.75
80962;BMP280;70424;55.154;14.722;2023-10-31T01:00:55;99694.78;;;10.76
80962;BMP280;70424;55.154;14.722;2023-10-31T01:03:20;99686.69;;;10.78
80962;BMP280;70424;55.154;14.722;2023-10-31T01:05:45;99683.31;;;10.79
80962;BMP280;70424;55.154;14.722;2023-10-31T01:08:11;99675.81;;;10.80
80962;BMP280;70424;55.154;14.722;2023-10-31T01:10:37;99678.75;;;10.84
80962;BMP280;70424;55.154;14.722;2023-10-31T01:13:02;99676.81;;;10.87
80962;BMP280;70424;55.154;14.722;2023-10-31T01:15:28;99670.84;;;10.90
80962;BMP280;70424;55.154;14.722;2023-10-31T01:17:53;99660.63;;;10.91
80962;BMP280;70424;55.154;14.722;2023-10-31T01:20:18;99647.84;;;10.95
80962;BMP280;70424;55.154;14.722;2023-10-31T01:22:43;99638.31;;;10.96
80962;BMP280;70424;55.154;14.722;2023-10-31T01:25:09;99624.72;;;10.98
80962;BMP280;70424;55.154;14.722;2023-10-31T01:27:35;99631.63;;;10.99
80962;BMP280;70424;55.154;14.722;2023-10-31T01:30:01;99634.47;;;11.01
80962;BMP280;70424;55.154;14.722;2023-10-31T01:32:26;99635.06;;;11.00
80962;BMP280;70424;55.154;14.722;2023-10-31T01:34:52;99629.16;;;11.05
80962;BMP280;70424;55.154;14.722;2023-10-31T01:37:17;99621.75;;;11.08
80962;BMP280;70424;55.154;14.722;2023-10-31T01:39:44;99629.34;;;11.09
80962;BMP280;70424;55.154;14.722;2023-10-31T01:42:13;99617.09;;;11.10
80962;BMP280;70424;55.154;14.722;2023-10-31T01:44:38;99611.69;;;11.13
80962;BMP280;70424;55.154;14.722;2023-10-31T01:47:04;99598.56;;;11.09
80962;BMP280;70424;55.154;14.722;2023-10-31T01:49:29;99597.44;;;11.14
80962;BMP280;70424;55.154;14.722;2023-10-31T01:51:55;99582.44;;;11.15
80962;BMP280;70424;55.154;14.722;2023-10-31T01:54:20;99573.59;;;11.17
80962;BMP280;70424;55.154;14.722;2023-10-31T01:56:46;99566.81;;;11.18
80962;BMP280;70424;55.154;14.722;2023-10-31T01:59:13;99560.00;;;11.19
80962;BMP280;70424;55.154;14.722;2023-10-31T02:01:39;99556.56;;;11.18
80962;BMP280;70424;55.154;14.722;2023-10-31T02:04:07;99546.88;;;11.15
80962;BMP280;70424;55.154;14.722;2023-10-31T02:06:32;99541.50;;;11.17
80962;BMP280;70424;55.154;14.722;2023-10-31T02:08:58;99524.44;;;11.19
80962;BMP280;70424;55.154;14.722;2023-10-31T02:11:23;99523.94;;;11.22
80962;BMP280;70424;55.154;14.722;2023-10-31T02:13:48;99523.22;;;11.22
80962;BMP280;70424;55.154;14.722;2023-10-31T02:16:14;99517.84;;;11.24
80962;BMP280;70424;55.154;14.722;2023-10-31T02:18:39;99526.03;;;11.24
80962;BMP280;70424;55.154;14.722;2023-10-31T02:21:05;99530.09;;;11.23
80962;BMP280;70424;55.154;14.722;2023-10-31T02:23:30;99523.22;;;11.22
80962;BMP280;70424;55.154;14.722;2023-10-31T02:25:57;99521.97;;;11.25
80962;BMP280;70424;55.154;14.722;2023-10-31T02:28:22;99521.97;;;11.25
80962;BMP280;70424;55.154;14.722;2023-10-31T02:30:52;99516.50;;;11.25
80962;BMP280;70424;55.154;14.722;2023-10-31T02:33:17;99506.19;;;11.23
80962;BMP280;70424;55.154;14.722;2023-10-31T02:35:43;99494.72;;;11.27
80962;BMP280;70424;55.154;14.722;2023-10-31T02:38:08;99494.72;;;11.27
80962;BMP280;70424;55.154;14.722;2023-10-31T02:40:33;99490.56;;;11.26
80962;BMP280;70424;55.154;14.722;2023-10-31T02:42:59;99485.88;;;11.28
80962;BMP280;70424;55.154;14.722;2023-10-31T02:45:24;99485.19;;;11.28
80962;BMP280;70424;55.154;14.722;2023-10-31T02:47:49;99483.16;;;11.28
80962;BMP280;70424;55.154;14.722;2023-10-31T02:50:15;99477.69;;;11.28
80962;BMP280;70424;55.154;14.722;2023-10-31T02:52:40;99474.25;;;11.28
80962;BMP280;70424;55.154;14.722;2023-10-31T02:55:06;99468.16;;;11.29
80962;BMP280;70424;55.154;14.722;2023-10-31T02:57:31;99461.97;;;11.29
80962;BMP280;70424;55.154;14.722;2023-10-31T02:59:56;99455.19;;;11.30
80962;BMP280;70424;55.154;14.722;2023-10-31T03:02:22;99452.44;;;11.30
80962;BMP280;70424;55.154;14.722;2023-10-31T03:04:47;99450.41;;;11.30
80962;BMP280;70424;55.154;14.722;2023-10-31T03:07:12;99444.25;;;11.30
80962;BMP280;70424;55.154;14.722;2023-10-31T03:09:38;99448.38;;;11.31
80962;BMP280;70424;55.154;14.722;2023-10-31T03:12:03;99436.13;;;11.32
80962;BMP280;70424;55.154;14.722;2023-10-31T03:14:29;99434.09;;;11.32
80962;BMP280;70424;55.154;14.722;2023-10-31T03:16:54;99441.59;;;11.32
80962;BMP280;70424;55.154;14.722;2023-10-31T03:19:19;99437.53;;;11.33
80962;BMP280;70424;55.154;14.722;2023-10-31T03:21:45;99435.53;;;11.33
80962;BMP280;70424;55.154;14.722;2023-10-31T03:24:10;99428.69;;;11.34
80962;BMP280;70424;55.154;14.722;2023-10-31T03:26:35;99431.44;;;11.34
80962;BMP280;70424;55.154;14.722;2023-10-31T03:29:00;99417.13;;;11.36
80962;BMP280;70424;55.154;14.722;2023-10-31T03:31:26;99417.22;;;11.38
80962;BMP280;70424;55.154;14.722;2023-10-31T03:33:51;99413.16;;;11.39
80962;BMP280;70424;55.154;14.722;2023-10-31T03:36:18;99409.72;;;11.38
80962;BMP280;70424;55.154;14.722;2023-10-31T03:38:43;99398.78;;;11.38
80962;BMP280;70424;55.154;14.722;2023-10-31T03:41:09;99402.22;;;11.39
80962;BMP280;70424;55.154;14.722;2023-10-31T03:43:34;99389.84;;;11.38
80962;BMP280;70424;55.154;14.722;2023-10-31T03:46:00;99392.00;;;11.39
80962;BMP280;70424;55.154;14.722;2023-10-31T03:48:25;99391.38;;;11.41
80962;BMP280;70424;55.154;14.722;2023-10-31T03:50:51;99385.91;;;11.41
80962;BMP280;70424;55.154;14.722;2023-10-31T03:53:16;99382.47;;;11.40
80962;BMP280;70424;55.154;14.722;2023-10-31T03:55:42;99368.84;;;11.42
80962;BMP280;70424;55.154;14.722;2023-10-31T03:58:07;99363.38;;;11.42
80962;BMP280;70424;55.154;14.722;2023-10-31T04:00:33;99362.03;;;11.43
80962;BMP280;70424;55.154;14.722;2023-10-31T04:02:58;99352.50;;;11.45
80962;BMP280;70424;55.154;14.722;2023-10-31T04:05:23;99351.28;;;11.48
80962;BMP280;70424;55.154;14.722;2023-10-31T04:07:49;99349.38;;;11.52
80962;BMP280;70424;55.154;14.722;2023-10-31T04:10:15;99354.06;;;11.50
80962;BMP280;70424;55.154;14.722;2023-10-31T04:12:41;99349.16;;;11.46
80962;BMP280;70424;55.154;14.722;2023-10-31T04:15:07;99350.25;;;11.39
80962;BMP280;70424;55.154;14.722;2023-10-31T04:17:33;99345.63;;;11.43
80962;BMP280;70424;55.154;14.722;2023-10-31T04:19:58;99336.72;;;11.43
80962;BMP280;70424;55.154;14.722;2023-10-31T04:22:24;99331.25;;;11.43
80962;BMP280;70424;55.154;14.722;2023-10-31T04:24:49;99328.50;;;11.43
80962;BMP280;70424;55.154;14.722;2023-10-31T04:27:14;99324.44;;;11.44
80962;BMP280;70424;55.154;14.722;2023-10-31T04:29:40;99327.88;;;11.45
80962;BMP280;70424;55.154;14.722;2023-10-31T04:32:05;99325.06;;;11.42
80962;BMP280;70424;55.154;14.722;2023-10-31T04:34:31;99313.97;;;11.38
80962;BMP280;70424;55.154;14.722;2023-10-31T04:36:56;99316.16;;;11.42
80962;BMP280;70424;55.154;14.722;2023-10-31T04:39:21;99321.72;;;11.44
80962;BMP280;70424;55.154;14.722;2023-10-31T04:41:47;99315.47;;;11.41
80962;BMP280;70424;55.154;14.722;2023-10-31T04:44:13;99321.63;;;11.42
80962;BMP280;70424;55.154;14.722;2023-10-31T04:46:38;99313.44;;;11.42
80962;BMP280;70424;55.154;14.722;2023-10-31T04:49:04;99310.06;;;11.43
80962;BMP280;70424;55.154;14.722;2023-10-31T04:51:33;99298.41;;;11.43
80962;BMP280;70424;55.154;14.722;2023-10-31T04:53:59;99297.91;;;11.47
80962;BMP280;70424;55.154;14.722;2023-10-31T04:56:25;99293.03;;;11.45
80962;BMP280;70424;55.154;14.722;2023-10-31T04:58:50;99297.78;;;11.45
80962;BMP280;70424;55.154;14.722;2023-10-31T05:01:15;99290.28;;;11.45
80962;BMP280;70424;55.154;14.722;2023-10-31T05:03:41;99288.25;;;11.46
80962;BMP280;70424;55.154;14.722;2023-10-31T05:06:06;99282.88;;;11.48
80962;BMP280;70424;55.154;14.722;2023-10-31T05:08:32;99276.53;;;11.43
80962;BMP280;70424;55.154;14.722;2023-10-31T05:10:58;99273.28;;;11.47
80962;BMP280;70424;55.154;14.722;2023-10-31T05:13:24;99269.22;;;11.48
80962;BMP280;70424;55.154;14.722;2023-10-31T05:15:49;99262.31;;;11.47
80962;BMP280;70424;55.154;14.722;2023-10-31T05:18:15;99257.56;;;11.47
80962;BMP280;70424;55.154;14.722;2023-10-31T05:20:41;99256.22;;;11.48
80962;BMP280;70424;55.154;14.722;2023-10-31T05:23:06;99250.75;;;11.48
80962;BMP280;70424;55.154;14.722;2023-10-31T05:25:32;99246.69;;;11.49
80962;BMP280;70424;55.154;14.722;2023-10-31T05:27:57;99239.88;;;11.50
80962;BMP280;70424;55.154;14.722;2023-10-31T05:30:22;99243.31;;;11.51
80962;BMP280;70424;55.154;14.722;2023-10-31T05:32:49;99228.22;;;11.50
80962;BMP280;70424;55.154;14.722;2023-10-31T05:35:15;99238.53;;;11.51
80962;BMP280;70424;55.154;14.722;2023-10-31T05:37:40;99231.03;;;11.52
80962;BMP280;70424;55.154;14.722;2023-10-31T05:40:06;99226.25;;;11.52
80962;BMP280;70424;55.154;14.722;2023-10-31T05:42:31;99226.25;;;11.52
80962;BMP280;70424;55.154;14.722;2023-10-31T05:44:56;99224.31;;;11.55
80962;BMP280;70424;55.154;14.722;2023-10-31T05:47:22;99217.50;;;11.56
80962;BMP280;70424;55.154;14.722;2023-10-31T05:49:47;99218.84;;;11.55
80962;BMP280;70424;55.154;14.722;2023-10-31T05:52:13;99223.00;;;11.56
80962;BMP280;70424;55.154;14.722;2023-10-31T05:54:38;99214.78;;;11.56
80962;BMP280;70424;55.154;14.722;2023-10-31T05:57:04;99207.28;;;11.56
80962;BMP280;70424;55.154;14.722;2023-10-31T05:59:29;99210.75;;;11.59
80962;BMP280;70424;55.154;14.722;2023-10-31T06:01:54;99213.50;;;11.59
80962;BMP280;70424;55.154;14.722;2023-10-31T06:04:20;99208.03;;;11.59
80962;BMP280;70424;55.154;14.722;2023-10-31T06:06:45;99208.66;;;11.57
80962;BMP280;70424;55.154;14.722;2023-10-31T06:09:10;99207.28;;;11.56
80962;BMP280;70424;55.154;14.722;2023-10-31T06:11:36;99206.63;;;11.58
80962;BMP280;70424;55.154;14.722;2023-10-31T06:14:01;99204.53;;;11.56
80962;BMP280;70424;55.154;14.722;2023-10-31T06:16:26;99203.19;;;11.57
80962;BMP280;70424;55.154;14.722;2023-10-31T06:18:52;99204.59;;;11.58
80962;BMP280;70424;55.154;14.722;2023-10-31T06:21:17;99200.44;;;11.57
80962;BMP280;70424;55.154;14.722;2023-10-31T06:23:43;99190.38;;;11.62
80962;BMP280;70424;55.154;14.722;2023-10-31T06:26:10;99193.03;;;11.60
80962;BMP280;70424;55.154;14.722;2023-10-31T06:28:36;99182.78;;;11.60
80962;BMP280;70424;55.154;14.722;2023-10-31T06:31:03;99183.50;;;11.61
80962;BMP280;70424;55.154;14.722;2023-10-31T06:33:28;99180.06;;;11.60
80962;BMP280;70424;55.154;14.722;2023-10-31T06:35:53;99174.47;;;11.58
80962;BMP280;70424;55.154;14.722;2023-10-31T06:38:19;99158.16;;;11.60
80962;BMP280;70424;55.154;14.722;2023-10-31T06:40:45;99156.91;;;11.63
80962;BMP280;70424;55.154;14.722;2023-10-31T06:43:10;99152.09;;;11.64
80962;BMP280;70424;55.154;14.722;2023-10-31T06:45:35;99152.19;;;11.66
80962;BMP280;70424;55.154;14.722;2023-10-31T06:48:01;99148.84;;;11.67
80962;BMP280;70424;55.154;14.722;2023-10-31T06:50:27;99135.16;;;11.67
80962;BMP280;70424;55.154;14.722;2023-10-31T06:52:52;99135.22;;;11.69
80962;BMP280;70424;55.154;14.722;2023-10-31T06:55:18;99131.16;;;11.70
80962;BMP280;70424;55.154;14.722;2023-10-31T06:57:43;99124.34;;;11.71
80962;BMP280;70424;55.154;14.722;2023-10-31T07:00:10;99118.94;;;11.73
80962;BMP280;70424;55.154;14.722;2023-10-31T07:02:35;99115.56;;;11.75
80962;BMP280;70424;55.154;14.722;2023-10-31T07:05:00;99116.25;;;11.76
80962;BMP280;70424;55.154;14.722;2023-10-31T07:07:26;99100.63;;;11.78
80962;BMP280;70424;55.154;14.722;2023-10-31T07:09:51;99099.97;;;11.80
80962;BMP280;70424;55.154;14.722;2023-10-31T07:12:17;99093.94;;;11.83
80962;BMP280;70424;55.154;14.722;2023-10-31T07:14:42;99096.66;;;11.83
80962;BMP280;70424;55.154;14.722;2023-10-31T07:17:07;99089.97;;;11.86
80962;BMP280;70424;55.154;14.722;2023-10-31T07:19:33;99083.81;;;11.88
80962;BMP280;70424;55.154;14.722;2023-10-31T07:21:58;99085.22;;;11.89
80962;BMP280;70424;55.154;14.722;2023-10-31T07:24:23;99081.22;;;11.92
80962;BMP280;70424;55.154;14.722;2023-10-31T07:26:48;99069.66;;;11.93
80962;BMP280;70424;55.154;14.722;2023-10-31T07:29:14;99060.78;;;11.95
80962;BMP280;70424;55.154;14.722;2023-10-31T07:31:39;99055.31;;;11.95
80962;BMP280;70424;55.154;14.722;2023-10-31T07:34:05;99052.72;;;11.99
80962;BMP280;70424;55.154;14.722;2023-10-31T07:36:31;99046.59;;;12.00
80962;BMP280;70424;55.154;14.722;2023-10-31T07:39:00;99049.38;;;12.02
80962;BMP280;70424;55.154;14.722;2023-10-31T07:41:25;99040.63;;;12.06
80962;BMP280;70424;55.154;14.722;2023-10-31T07:43:51;99034.50;;;12.08
80962;BMP280;70424;55.154;14.722;2023-10-31T07:46:16;99035.94;;;12.11
80962;BMP280;70424;55.154;14.722;2023-10-31T07:48:41;99030.53;;;12.13
80962;BMP280;70424;55.154;14.722;2023-10-31T07:51:07;99025.81;;;12.15
80962;BMP280;70424;55.154;14.722;2023-10-31T07:53:32;99023.22;;;12.19
80962;BMP280;70424;55.154;14.722;2023-10-31T07:55:57;99015.69;;;12.20
80962;BMP280;70424;55.154;14.722;2023-10-31T07:58:23;99020.56;;;12.23
80962;BMP280;70424;55.154;14.722;2023-10-31T08:00:48;99021.28;;;12.24
80962;BMP280;70424;55.154;14.722;2023-10-31T08:03:14;99010.22;;;12.20
80962;BMP280;70424;55.154;14.722;2023-10-31T08:05:39;99009.63;;;12.23
80962;BMP280;70424;55.154;14.722;2023-10-31T08:08:05;99006.97;;;12.25
80962;BMP280;70424;55.154;14.722;2023-10-31T08:10:30;99003.59;;;12.27
80962;BMP280;70424;55.154;14.722;2023-10-31T08:12:55;99007.72;;;12.28
80962;BMP280;70424;55.154;14.722;2023-10-31T08:15:20;98994.72;;;12.28
80962;BMP280;70424;55.154;14.722;2023-10-31T08:17:46;98993.34;;;12.29
80962;BMP280;70424;55.154;14.722;2023-10-31T08:20:12;98992.03;;;12.30
80962;BMP280;70424;55.154;14.722;2023-10-31T08:22:38;98983.81;;;12.30
80962;BMP280;70424;55.154;14.722;2023-10-31T08:25:04;98988.03;;;12.33
80962;BMP280;70424;55.154;14.722;2023-10-31T08:27:29;98993.50;;;12.33
80962;BMP280;70424;55.154;14.722;2023-10-31T08:29:55;98994.22;;;12.34
80962;BMP280;70424;55.154;14.722;2023-10-31T08:32:20;98992.81;;;12.33
80962;BMP280;70424;55.154;14.722;2023-10-31T08:34:47;98988.72;;;12.34
80962;BMP280;70424;55.154;14.722;2023-10-31T08:37:12;98983.25;;;12.34
80962;BMP280;70424;55.154;14.722;2023-10-31T08:39:38;98986.03;;;12.36
80962;BMP280;70424;55.154;14.722;2023-10-31T08:42:03;98988.72;;;12.34
80962;BMP280;70424;55.154;14.722;2023-10-31T08:44:29;99001.72;;;12.33
80962;BMP280;70424;55.154;14.722;2023-10-31T08:46:54;98996.88;;;12.32
80962;BMP280;70424;55.154;14.722;2023-10-31T08:49:19;99003.69;;;12.31
80962;BMP280;70424;55.154;14.722;2023-10-31T08:51:45;99010.50;;;12.30
80962;BMP280;70424;55.154;14.722;2023-10-31T08:54:10;99002.88;;;12.26
80962;BMP280;70424;55.154;14.722;2023-10-31T08:56:36;99002.88;;;12.26
80962;BMP280;70424;55.154;14.722;2023-10-31T08:59:01;99002.25;;;12.28
80962;BMP280;70424;55.154;14.722;2023-10-31T09:01:27;99008.38;;;12.26
80962;BMP280;70424;55.154;14.722;2023-10-31T09:03:54;99002.19;;;12.26
80962;BMP280;70424;55.154;14.722;2023-10-31T09:06:19;99002.94;;;12.28
80962;BMP280;70424;55.154;14.722;2023-10-31T09:08:45;99007.06;;;12.29
80962;BMP280;70424;55.154;14.722;2023-10-31T09:11:10;99026.94;;;12.30
80962;BMP280;70424;55.154;14.722;2023-10-31T09:13:35;99020.06;;;12.29
80962;BMP280;70424;55.154;14.722;2023-10-31T09:16:01;99013.31;;;12.32
80962;BMP280;70424;55.154;14.722;2023-10-31T09:18:27;99014.78;;;12.35
80962;BMP280;70424;55.154;14.722;2023-10-31T09:20:53;99004.00;;;12.41
80962;BMP280;70424;55.154;14.722;2023-10-31T09:23:18;99006.09;;;12.43
80962;BMP280;70424;55.154;14.722;2023-10-31T09:25:44;99010.41;;;12.50
80962;BMP280;70424;55.154;14.722;2023-10-31T09:28:10;99003.69;;;12.55
80962;BMP280;70424;55.154;14.722;2023-10-31T09:30:35;99002.53;;;12.62
80962;BMP280;70424;55.154;14.722;2023-10-31T09:33:00;98989.69;;;12.68
80962;BMP280;70424;55.154;14.722;2023-10-31T09:35:26;98989.25;;;12.76
80962;BMP280;70424;55.154;14.722;2023-10-31T09:37:52;98987.38;;;12.83
80962;BMP280;70424;55.154;14.722;2023-10-31T09:40:18;98990.31;;;12.91
80962;BMP280;70424;55.154;14.722;2023-10-31T09:42:47;98984.31;;;12.96
80962;BMP280;70424;55.154;14.722;2023-10-31T09:45:13;98985.84;;;13.04
80962;BMP280;70424;55.154;14.722;2023-10-31T09:47:39;98988.06;;;13.09
80962;BMP280;70424;55.154;14.722;2023-10-31T09:50:06;98988.91;;;13.16
80962;BMP280;70424;55.154;14.722;2023-10-31T09:52:32;98989.13;;;13.24
80962;BMP280;70424;55.154;14.722;2023-10-31T09:54:58;98981.06;;;13.32
80962;BMP280;70424;55.154;14.722;2023-10-31T09:57:24;98982.59;;;13.39
80962;BMP280;70424;55.154;14.722;2023-10-31T09:59:51;98977.97;;;13.46
80962;BMP280;70424;55.154;14.722;2023-10-31T10:02:16;98976.19;;;13.56
80962;BMP280;70424;55.154;14.722;2023-10-31T10:04:42;98970.91;;;13.66
80962;BMP280;70424;55.154;14.722;2023-10-31T10:07:07;98963.66;;;13.79
80962;BMP280;70424;55.154;14.722;2023-10-31T10:09:33;98966.63;;;13.89
80962;BMP280;70424;55.154;14.722;2023-10-31T10:11:59;98973.69;;;13.98
80962;BMP280;70424;55.154;14.722;2023-10-31T10:14:28;98967.69;;;14.06
80962;BMP280;70424;55.154;14.722;2023-10-31T10:16:54;98974.66;;;14.11
80962;BMP280;70424;55.154;14.722;2023-10-31T10:19:21;98978.88;;;14.16
80962;BMP280;70424;55.154;14.722;2023-10-31T10:21:51;98969.94;;;14.16
80962;BMP280;70424;55.154;14.722;2023-10-31T10:24:17;98972.59;;;14.12
80962;BMP280;70424;55.154;14.722;2023-10-31T10:26:43;98970.47;;;14.08
80962;BMP280;70424;55.154;14.722;2023-10-31T10:29:09;98966.88;;;14.02
80962;BMP280;70424;55.154;14.722;2023-10-31T10:31:34;98972.25;;;13.95
80962;BMP280;70424;55.154;14.722;2023-10-31T10:34:00;98965.31;;;13.92
80962;BMP280;70424;55.154;14.722;2023-10-31T10:36:27;98961.88;;;13.92
80962;BMP280;70424;55.154;14.722;2023-10-31T10:38:56;98957.78;;;13.93
80962;BMP280;70424;55.154;14.722;2023-10-31T10:41:25;98958.53;;;13.95
80962;BMP280;70424;55.154;14.722;2023-10-31T10:43:54;98955.91;;;14.02
80962;BMP280;70424;55.154;14.722;2023-10-31T10:46:21;98966.38;;;14.09
80962;BMP280;70424;55.154;14.722;2023-10-31T10:48:48;98967.25;;;14.18
80962;BMP280;70424;55.154;14.722;2023-10-31T10:54:19;98969.28;;;14.17
80962;BMP280;70424;55.154;14.722;2023-10-31T10:56:53;98959.38;;;14.04
80962;BMP280;70424;55.154;14.722;2023-10-31T10:59:21;98963.34;;;13.97
80962;BMP280;70424;55.154;14.722;2023-10-31T11:01:52;98959.00;;;13.86
80962;BMP280;70424;55.154;14.722;2023-10-31T11:04:19;98973.19;;;13.76
80962;BMP280;70424;55.154;14.722;2023-10-31T11:06:45;98979.94;;;13.71
80962;BMP280;70424;55.154;14.722;2023-10-31T11:09:11;98979.78;;;13.65
80962;BMP280;70424;55.154;14.722;2023-10-31T11:11:40;98979.00;;;13.60
80962;BMP280;70424;55.154;14.722;2023-10-31T11:14:06;98970.66;;;13.54
80962;BMP280;70424;55.154;14.722;2023-10-31T11:16:39;98973.88;;;13.47
80962;BMP280;70424;55.154;14.722;2023-10-31T11:19:08;98976.56;;;13.45
80962;BMP280;70424;55.154;14.722;2023-10-31T11:21:34;98968.88;;;13.39
80962;BMP280;70424;55.154;14.722;2023-10-31T11:24:00;98968.19;;;13.39
80962;BMP280;70424;55.154;14.722;2023-10-31T11:26:26;98950.59;;;13.20
80962;BMP280;70424;55.154;14.722;2023-10-31T11:28:51;98974.22;;;13.33
80962;BMP280;70424;55.154;14.722;2023-10-31T11:31:17;98968.69;;;13.31
80962;BMP280;70424;55.154;14.722;2023-10-31T11:33:42;98965.22;;;13.28
80962;BMP280;70424;55.154;14.722;2023-10-31T11:36:10;98970.63;;;13.26
80962;BMP280;70424;55.154;14.722;2023-10-31T11:38:37;98980.19;;;13.23
80962;BMP280;70424;55.154;14.722;2023-10-31T11:41:03;98977.28;;;13.17
80962;BMP280;70424;55.154;14.722;2023-10-31T11:46:03;98972.31;;;13.12
80962;BMP280;70424;55.154;14.722;2023-10-31T11:48:58;98972.31;;;13.10
80962;BMP280;70424;55.154;14.722;2023-10-31T11:51:25;98972.88;;;13.06
80962;BMP280;70424;55.154;14.722;2023-10-31T11:53:51;98970.09;;;13.04
80962;BMP280;70424;55.154;14.722;2023-10-31T11:56:17;98947.03;;;12.87
80962;BMP280;70424;55.154;14.722;2023-10-31T11:58:43;98968.63;;;13.01
80962;BMP280;70424;55.154;14.722;2023-10-31T12:01:09;98976.16;;;13.00
80962;BMP280;70424;55.154;14.722;2023-10-31T12:03:43;98974.72;;;12.97
80962;BMP280;70424;55.154;14.722;2023-10-31T12:06:13;98978.81;;;12.96
80962;BMP280;70424;55.154;14.722;2023-10-31T12:08:43;98976.00;;;12.94
80962;BMP280;70424;55.154;14.722;2023-10-31T12:13:40;98976.78;;;12.97
80962;BMP280;70424;55.154;14.722;2023-10-31T12:16:06;98976.78;;;12.99
80962;BMP280;70424;55.154;14.722;2023-10-31T12:18:33;98969.91;;;12.98
80962;BMP280;70424;55.154;14.722;2023-10-31T12:21:00;98972.00;;;12.99
80962;BMP280;70424;55.154;14.722;2023-10-31T12:23:25;98981.59;;;12.98
80962;BMP280;70424;55.154;14.722;2023-10-31T12:25:51;98974.75;;;12.99
80962;BMP280;70424;55.154;14.722;2023-10-31T12:28:21;98975.44;;;13.00
80962;BMP280;70424;55.154;14.722;2023-10-31T12:30:48;98978.19;;;13.00
80962;BMP280;70424;55.154;14.722;2023-10-31T12:33:14;98980.25;;;12.99
80962;BMP280;70424;55.154;14.722;2023-10-31T12:35:39;98971.97;;;12.97
80962;BMP280;70424;55.154;14.722;2023-10-31T12:38:06;98975.44;;;13.00
80962;BMP280;70424;55.154;14.722;2023-10-31T12:40:33;98978.19;;;13.00
80962;BMP280;70424;55.154;14.722;2023-10-31T12:42:59;98977.50;;;12.99
80962;BMP280;70424;55.154;14.722;2023-10-31T12:45:25;98982.94;;;12.97
80962;BMP280;70424;55.154;14.722;2023-10-31T12:48:03;98980.06;;;12.93
80962;BMP280;70424;55.154;14.722;2023-10-31T12:50:30;98980.78;;;12.94
80962;BMP280;70424;55.154;14.722;2023-10-31T12:52:56;98969.06;;;12.91
80962;BMP280;70424;55.154;14.722;2023-10-31T12:55:29;98982.13;;;12.93
80962;BMP280;70424;55.154;14.722;2023-10-31T12:57:55;98980.63;;;12.88
80962;BMP280;70424;55.154;14.722;2023-10-31T13:00:22;98980.72;;;12.92
80962;BMP280;70424;55.154;14.722;2023-10-31T13:03:04;98993.72;;;12.91
80962;BMP280;70424;55.154;14.722;2023-10-31T13:05:30;98985.47;;;12.89
80962;BMP280;70424;55.154;14.722;2023-10-31T13:07:57;98991.59;;;12.88
80962;BMP280;70424;55.154;14.722;2023-10-31T13:10:24;98992.28;;;12.88
80962;BMP280;70424;55.154;14.722;2023-10-31T13:12:50;98992.28;;;12.88
80962;BMP280;70424;55.154;14.722;2023-10-31T13:15:18;98990.97;;;12.89
80962;BMP280;70424;55.154;14.722;2023-10-31T13:17:44;98993.72;;;12.89
80962;BMP280;70424;55.154;14.722;2023-10-31T13:20:10;98993.72;;;12.91
80962;BMP280;70424;55.154;14.722;2023-10-31T13:22:37;98993.06;;;12.91
80962;BMP280;70424;55.154;14.722;2023-10-31T13:25:04;98994.41;;;12.90
80962;BMP280;70424;55.154;14.722;2023-10-31T13:27:50;98994.41;;;12.90
80962;BMP280;70424;55.154;14.722;2023-10-31T13:30:18;98990.25;;;12.89
80962;BMP280;70424;55.154;14.722;2023-10-31T13:32:44;99004.69;;;12.89
80962;BMP280;70424;55.154;14.722;2023-10-31T13:35:09;98992.28;;;12.88
80962;BMP280;70424;55.154;14.722;2023-10-31T13:37:36;98995.03;;;12.88
80962;BMP280;70424;55.154;14.722;2023-10-31T13:40:02;98988.84;;;12.88
80962;BMP280;70424;55.154;14.722;2023-10-31T13:42:27;98990.25;;;12.89
80962;BMP280;70424;55.154;14.722;2023-10-31T13:44:53;98995.72;;;12.89
80962;BMP280;70424;55.154;14.722;2023-10-31T13:47:19;98990.97;;;12.89
80962;BMP280;70424;55.154;14.722;2023-10-31T13:49:44;98996.44;;;12.89
80962;BMP280;70424;55.154;14.722;2023-10-31T13:52:10;98990.25;;;12.89
80962;BMP280;70424;55.154;14.722;2023-10-31T13:54:35;98997.06;;;12.88
80962;BMP280;70424;55.154;14.722;2023-10-31T13:57:00;99002.56;;;12.88